Time;durP1;ratioP1;P1;durP2;ratioP2;P2;SDS_P1;SDS_P2;PMS_P1;PMS_P2;Temp;Humidity;BMP_temperature;BMP_pressure;BME280_temperature;BME280_humidity;BME280_pressure;Samples;Min_cycle;Max_cycle;Signal;HPM_P1;HPM_P2
2023/01/14 00:02:22;;;;;;;2.00;0.52;;;16.80;68.40;;;;;;7401954;19;20001;-69
2023/01/14 00:04:51;;;;;;;1.60;0.50;;;16.80;68.40;;;;;;7403437;19;19911;-68
2023/01/14 00:07:20;;;;;;;2.25;0.50;;;16.80;68.40;;;;;;7402816;19;19953;-68
2023/01/14 00:09:49;;;;;;;2.17;0.70;;;16.80;68.40;;;;;;7402926;19;19935;-68
2023/01/14 00:12:21;;;;;;;2.35;0.80;;;16.80;68.40;;;;;;7402987;19;19919;-68
2023/01/14 00:14:58;;;;;;;2.42;0.70;;;16.80;68.40;;;;;;7402664;19;19932;-67
2023/01/14 00:17:27;;;;;;;1.83;0.63;;;16.80;68.40;;;;;;7402578;19;19974;-68
2023/01/14 00:19:56;;;;;;;2.20;0.68;;;16.80;68.40;;;;;;7403660;19;19940;-68
2023/01/14 00:22:25;;;;;;;2.50;0.75;;;16.80;68.40;;;;;;7401682;19;19914;-68
2023/01/14 00:24:54;;;;;;;2.45;0.80;;;16.80;69.00;;;;;;7401786;19;20519;-69
2023/01/14 00:27:23;;;;;;;2.38;0.30;;;16.80;68.40;;;;;;7402500;19;20361;-69
2023/01/14 00:29:52;;;;;;;1.67;0.60;;;16.80;68.40;;;;;;7402042;19;19926;-68
2023/01/14 00:32:26;;;;;;;2.63;0.45;;;16.80;68.40;;;;;;7400532;19;19930;-69
2023/01/14 00:34:55;;;;;;;2.28;0.70;;;16.80;68.40;;;;;;7402314;19;19940;-67
2023/01/14 00:37:24;;;;;;;1.85;0.90;;;16.80;68.40;;;;;;7401730;19;19918;-68
2023/01/14 00:39:53;;;;;;;3.17;0.65;;;16.80;68.40;;;;;;7401831;19;19918;-68
2023/01/14 00:42:22;;;;;;;2.72;0.65;;;16.80;68.50;;;;;;7400684;19;19966;-68
2023/01/14 00:44:51;;;;;;;2.72;0.30;;;16.80;69.10;;;;;;7401785;19;19915;-68
2023/01/14 00:47:20;;;;;;;2.67;0.80;;;16.70;68.40;;;;;;7401927;19;19940;-69
2023/01/14 00:49:52;;;;;;;2.97;1.13;;;16.80;68.50;;;;;;7401879;19;19927;-68
2023/01/14 00:52:22;;;;;;;2.17;0.35;;;16.80;68.50;;;;;;7401485;19;19932;-68
2023/01/14 00:54:51;;;;;;;2.20;0.13;;;16.80;68.50;;;;;;7400901;19;19918;-68
2023/01/14 00:57:20;;;;;;;2.05;0.30;;;16.70;68.40;;;;;;7405258;19;19910;-68
2023/01/14 00:59:49;;;;;;;2.42;0.40;;;16.70;68.40;;;;;;7408465;19;19925;-68
2023/01/14 01:02:18;;;;;;;1.90;0.30;;;16.80;69.10;;;;;;7407308;19;19978;-68
2023/01/14 01:04:47;;;;;;;2.78;0.20;;;16.70;68.50;;;;;;7408220;19;20267;-68
2023/01/14 01:07:19;;;;;;;2.42;0.80;;;16.70;68.50;;;;;;7407924;19;19978;-68
2023/01/14 01:09:50;;;;;;;2.45;0.30;;;16.70;68.40;;;;;;7407538;19;20499;-68
2023/01/14 01:12:20;;;;;;;2.08;0.20;;;16.70;68.50;;;;;;7408057;19;19925;-68
2023/01/14 01:14:49;;;;;;;2.90;0.40;;;16.70;68.50;;;;;;7407774;19;20401;-68
2023/01/14 01:17:18;;;;;;;2.83;0.50;;;16.80;68.60;;;;;;7408178;19;19910;-68
2023/01/14 01:19:54;;;;;;;2.55;0.70;;;16.70;68.50;;;;;;7408791;19;19914;-67
2023/01/14 01:22:36;;;;;;;1.65;0.75;;;16.80;68.50;;;;;;7405947;19;19911;-68
2023/01/14 01:25:06;;;;;;;2.45;0.70;;;16.70;68.50;;;;;;7407426;19;19918;-68
2023/01/14 01:27:35;;;;;;;2.97;0.93;;;16.70;68.50;;;;;;7407126;19;19918;-68
2023/01/14 01:30:04;;;;;;;2.20;0.30;;;16.70;68.50;;;;;;7407872;19;19952;-68
2023/01/14 01:32:33;;;;;;;1.65;0.20;;;16.70;68.50;;;;;;7405434;19;20353;-68
2023/01/14 01:35:07;;;;;;;2.28;0.20;;;16.70;68.50;;;;;;7407004;19;20308;-68
2023/01/14 01:37:38;;;;;;;3.05;0.77;;;16.70;68.60;;;;;;7406958;19;19935;-68
2023/01/14 01:40:09;;;;;;;2.47;0.30;;;16.70;68.50;;;;;;7407462;19;20348;-68
2023/01/14 01:42:54;;;;;;;3.45;0.80;;;16.70;68.60;;;;;;7405958;19;20006;-68
2023/01/14 01:45:46;;;;;;;2.13;0.20;;;16.70;68.60;;;;;;7406615;19;20660;-68
2023/01/14 01:48:17;;;;;;;2.35;0.40;;;16.70;68.60;;;;;;7406907;19;20357;-68
2023/01/14 01:50:51;;;;;;;2.83;0.38;;;16.70;68.50;;;;;;7407068;19;19919;-68
2023/01/14 01:53:24;;;;;;;2.35;0.85;;;16.70;68.50;;;;;;7406472;19;19936;-68
2023/01/14 01:55:56;;;;;;;2.60;0.95;;;16.70;68.60;;;;;;7406561;19;19918;-68
2023/01/14 01:58:26;;;;;;;3.95;0.32;;;16.70;68.50;;;;;;7406779;19;19921;-68
2023/01/14 02:01:03;;;;;;;1.95;0.20;;;16.70;68.60;;;;;;7406650;19;19974;-69
2023/01/14 02:03:40;;;;;;;2.45;0.82;;;16.70;68.60;;;;;;7404380;19;19953;-68
2023/01/14 02:06:10;;;;;;;2.55;0.85;;;16.70;68.60;;;;;;7406039;19;20566;-68
2023/01/14 02:08:44;;;;;;;2.55;0.50;;;16.70;68.60;;;;;;7404497;19;19918;-69
2023/01/14 02:11:31;;;;;;;2.97;0.30;;;16.70;68.60;;;;;;7406434;19;19915;-68
2023/01/14 02:14:11;;;;;;;2.92;0.50;;;16.70;68.60;;;;;;7406313;19;19915;-68
2023/01/14 02:16:51;;;;;;;2.13;0.20;;;16.70;68.60;;;;;;7405670;19;19922;-68
2023/01/14 02:19:32;;;;;;;2.25;0.77;;;16.70;68.70;;;;;;7407722;19;19918;-68
2023/01/14 02:22:20;;;;;;;2.22;0.85;;;16.70;68.60;;;;;;7405964;19;19926;-69
2023/01/14 02:25:23;;;;;;;2.65;0.80;;;16.70;68.70;;;;;;7405102;19;19926;-69
2023/01/14 02:27:54;;;;;;;2.70;0.22;;;16.70;68.70;;;;;;7406167;19;19915;-69
2023/01/14 02:30:42;;;;;;;1.55;0.90;;;16.70;68.70;;;;;;7405929;19;19922;-68
2023/01/14 02:33:24;;;;;;;2.83;0.80;;;16.70;68.70;;;;;;7405461;19;19927;-68
2023/01/14 02:35:57;;;;;;;1.83;0.60;;;16.70;68.70;;;;;;7406071;19;19921;-68
2023/01/14 02:38:35;;;;;;;3.08;0.30;;;16.70;68.70;;;;;;7404389;19;19923;-69
2023/01/14 02:41:12;;;;;;;2.08;1.35;;;16.60;68.70;;;;;;7405420;19;19978;-68
2023/01/14 02:46:36;;;;;;;1.77;0.65;;;16.70;68.70;;;;;;7405591;19;19919;-68
2023/01/14 02:49:07;;;;;;;2.65;0.90;;;16.60;68.70;;;;;;7405632;19;19925;-68
2023/01/14 02:51:37;;;;;;;2.67;0.75;;;16.60;68.70;;;;;;7405228;19;19921;-68
2023/01/14 02:54:07;;;;;;;2.95;1.00;;;16.70;68.70;;;;;;7403600;19;19922;-68
2023/01/14 02:56:36;;;;;;;2.97;1.52;;;16.60;68.70;;;;;;7404477;19;19915;-69
2023/01/14 02:59:35;;;;;;;1.35;0.75;;;16.60;68.70;;;;;;7404651;19;19915;-67
2023/01/14 03:02:46;;;;;;;3.55;1.23;;;16.60;68.70;;;;;;7404832;19;20337;-69
2023/01/14 03:05:42;;;;;;;2.05;0.70;;;16.60;68.70;;;;;;7402293;19;19911;-69
2023/01/14 03:08:19;;;;;;;3.25;0.30;;;16.60;68.70;;;;;;7404520;19;19918;-68
2023/01/14 03:10:52;;;;;;;3.83;0.90;;;16.60;68.70;;;;;;7404945;19;19926;-69
2023/01/14 03:13:25;;;;;;;2.53;1.00;;;16.60;68.70;;;;;;7404327;19;19937;-69
2023/01/14 03:15:58;;;;;;;2.17;0.20;;;16.60;68.70;;;;;;7404579;19;19922;-68
2023/01/14 03:18:38;;;;;;;2.05;0.60;;;16.60;68.70;;;;;;7404912;19;19914;-69
2023/01/14 03:21:11;;;;;;;3.72;1.08;;;16.60;68.70;;;;;;7404772;19;19926;-69
2023/01/14 03:23:45;;;;;;;2.67;0.90;;;16.60;68.70;;;;;;7402879;19;19918;-68
2023/01/14 03:26:15;;;;;;;2.03;0.77;;;16.60;68.70;;;;;;7403673;19;20345;-69
2023/01/14 03:28:47;;;;;;;;;;;16.60;68.70;;;;;;7406943;19;19953;-69
2023/01/14 03:31:19;;;;;;;2.78;0.22;;;16.60;68.70;;;;;;7404331;19;19922;-69
2023/01/14 03:33:55;;;;;;;2.92;0.70;;;16.60;68.70;;;;;;7404258;19;19919;-68
2023/01/14 03:36:26;;;;;;;2.33;0.55;;;16.60;68.70;;;;;;7404436;19;19919;-68
2023/01/14 03:39:01;;;;;;;1.70;0.20;;;16.60;68.70;;;;;;7403469;19;19925;-69
2023/01/14 03:44:17;;;;;;;2.35;0.40;;;16.60;68.70;;;;;;7402009;19;19947;-68
2023/01/14 03:46:46;;;;;;;3.13;0.75;;;16.50;68.70;;;;;;7403919;19;20361;-68
2023/01/14 03:49:17;;;;;;;3.13;0.80;;;16.60;68.80;;;;;;7403783;19;19933;-69
2023/01/14 03:51:52;;;;;;;3.38;0.75;;;16.60;68.80;;;;;;7403406;19;19915;-69
2023/01/14 03:54:25;;;;;;;3.30;0.80;;;16.60;68.80;;;;;;7403061;19;19927;-69
2023/01/14 03:57:01;;;;;;;2.65;0.30;;;16.60;68.80;;;;;;7403273;19;19919;-68
2023/01/14 03:59:44;;;;;;;1.50;0.73;;;16.60;68.80;;;;;;7403768;19;19925;-68
2023/01/14 04:02:15;;;;;;;2.63;0.93;;;16.50;68.70;;;;;;7402987;19;19987;-69
2023/01/14 04:04:47;;;;;;;2.03;0.57;;;16.60;68.80;;;;;;7401273;19;19918;-68
2023/01/14 04:07:17;;;;;;;3.78;0.47;;;16.50;68.80;;;;;;7403050;19;19914;-68
2023/01/14 04:09:48;;;;;;;3.33;0.85;;;16.50;68.80;;;;;;7403195;19;19929;-68
2023/01/14 04:12:17;;;;;;;1.77;0.10;;;16.50;68.80;;;;;;7402580;19;19931;-68
2023/01/14 04:17:28;;;;;;;2.05;0.30;;;16.50;69.40;;;;;;7402454;19;19921;-68
2023/01/14 04:19:59;;;;;;;3.03;0.10;;;16.50;68.80;;;;;;7406805;19;19930;-68
2023/01/14 04:22:29;;;;;;;2.28;0.75;;;16.50;68.80;;;;;;7402206;19;19949;-69
2023/01/14 04:24:58;;;;;;;3.08;0.68;;;16.50;68.80;;;;;;7400259;19;19940;-68
2023/01/14 04:27:26;;;;;;;2.22;1.00;;;16.50;68.80;;;;;;7402433;19;19911;-68
2023/01/14 04:29:55;;;;;;;1.33;0.28;;;16.50;68.80;;;;;;7400349;19;19922;-69
2023/01/14 04:32:26;;;;;;;3.20;0.90;;;16.50;68.80;;;;;;7404863;19;19922;-68
2023/01/14 04:34:55;;;;;;;1.95;0.20;;;16.50;68.80;;;;;;7409431;19;20006;-69
2023/01/14 04:37:27;;;;;;;2.83;0.30;;;16.50;68.80;;;;;;7408946;19;19978;-68
2023/01/14 04:39:56;;;;;;;1.63;0.40;;;16.50;69.40;;;;;;7408906;19;19913;-69
2023/01/14 04:42:31;;;;;;;2.05;0.40;;;16.50;68.80;;;;;;7408570;19;20312;-69
2023/01/14 04:45:01;;;;;;;3.70;0.63;;;16.50;68.80;;;;;;7409009;19;19910;-68
2023/01/14 04:47:31;;;;;;;4.05;0.95;;;16.50;68.80;;;;;;7408566;19;20362;-69
2023/01/14 04:50:30;;;;;;;2.20;0.20;;;16.50;68.80;;;;;;7408696;19;19923;-69
2023/01/14 04:52:52;;;;;;;2.45;0.90;;;16.50;68.80;;;;;;7408040;19;19914;-69
2023/01/14 04:55:22;;;;;;;3.08;0.30;;;16.50;68.80;;;;;;7408125;19;20345;-69
2023/01/14 04:57:51;;;;;;;2.45;1.05;;;16.50;68.80;;;;;;7408605;19;19911;-68
2023/01/14 05:00:21;;;;;;;2.25;0.60;;;16.50;68.80;;;;;;7406366;19;19914;-69
2023/01/14 05:02:51;;;;;;;3.08;0.60;;;16.50;68.90;;;;;;7407818;19;19911;-68
2023/01/14 05:05:20;;;;;;;2.42;0.73;;;16.40;68.80;;;;;;7406355;19;19931;-69
2023/01/14 05:07:52;;;;;;;2.00;0.60;;;16.50;68.80;;;;;;7408428;19;19933;-69
2023/01/14 05:10:21;;;;;;;2.38;0.73;;;16.50;68.80;;;;;;7408009;19;19911;-69
2023/01/14 05:13:02;;;;;;;3.30;1.42;;;16.50;68.80;;;;;;7407849;19;19915;-69
2023/01/14 05:15:34;;;;;;;2.75;0.30;;;16.50;68.80;;;;;;7407653;19;20341;-69
2023/01/14 05:18:03;;;;;;;2.03;0.60;;;16.40;68.80;;;;;;7408872;19;19939;-69
2023/01/14 05:20:32;;;;;;;2.17;0.47;;;16.50;68.80;;;;;;7407787;19;20238;-69
2023/01/14 05:23:06;;;;;;;5.30;0.30;;;16.40;68.80;;;;;;7407215;19;20313;-69
2023/01/14 05:25:36;;;;;;;1.80;0.52;;;16.40;68.80;;;;;;7407003;19;19927;-69
2023/01/14 05:28:07;;;;;;;2.13;0.38;;;16.40;68.80;;;;;;7407462;19;19921;-68
2023/01/14 05:30:36;;;;;;;2.75;0.52;;;16.40;68.80;;;;;;7406874;19;20053;-69
2023/01/14 05:33:25;;;;;;;2.65;0.82;;;16.40;68.80;;;;;;7405799;19;19922;-69
2023/01/14 05:36:14;;;;;;;3.13;0.30;;;16.40;68.80;;;;;;7406122;19;19914;-69
2023/01/14 05:39:05;;;;;;;2.13;0.88;;;16.40;68.80;;;;;;7404173;19;19933;-69
2023/01/14 05:47:42;;;;;;;1.58;0.20;;;16.40;68.80;;;;;;7407117;19;19918;-68
2023/01/14 05:50:13;;;;;;;3.83;0.35;;;16.40;69.30;;;;;;7406924;19;20272;-68
2023/01/14 05:52:42;;;;;;;3.80;0.30;;;16.40;68.80;;;;;;7407505;19;19927;-69
2023/01/14 05:55:19;;;;;;;2.40;0.38;;;16.40;68.80;;;;;;7406015;19;19914;-68
2023/01/14 05:57:49;;;;;;;2.80;0.20;;;16.40;68.80;;;;;;7406370;19;19988;-69
2023/01/14 06:08:27;;;;;;;2.85;0.85;;;16.40;68.80;;;;;;7406732;19;19915;-69
2023/01/14 06:11:00;;;;;;;2.15;0.75;;;16.30;68.70;;;;;;7406141;19;20340;-69
2023/01/14 06:13:30;;;;;;;2.95;0.20;;;16.40;68.80;;;;;;7406869;19;20385;-69
2023/01/14 06:15:58;;;;;;;2.75;0.30;;;16.40;68.80;;;;;;7406314;19;19923;-69
2023/01/14 06:18:37;;;;;;;1.52;0.55;;;16.30;68.70;;;;;;7409157;19;19915;-69
2023/01/14 06:21:08;;;;;;;3.22;0.52;;;16.40;68.80;;;;;;7406511;19;19922;-69
2023/01/14 06:23:37;;;;;;;3.88;0.82;;;16.30;68.70;;;;;;7405104;19;19918;-69
2023/01/14 06:26:12;;;;;;;3.72;0.40;;;16.30;68.70;;;;;;7405531;19;19915;-69
2023/01/14 06:28:42;;;;;;;3.03;1.10;;;16.40;68.80;;;;;;7405562;19;19935;-69
2023/01/14 06:31:12;;;;;;;2.58;0.60;;;16.30;68.70;;;;;;7404993;19;19917;-69
2023/01/14 06:33:42;;;;;;;1.70;0.13;;;16.30;68.80;;;;;;7405755;19;19926;-69
2023/01/14 06:36:12;;;;;;;2.88;0.30;;;16.30;68.80;;;;;;7405802;19;19914;-69
2023/01/14 06:38:42;;;;;;;2.88;0.40;;;16.30;68.80;;;;;;7404090;19;19922;-68
2023/01/14 06:41:14;;;;;;;2.47;0.30;;;16.30;68.70;;;;;;7405475;19;19951;-69
2023/01/14 06:43:44;;;;;;;2.42;0.22;;;16.30;68.70;;;;;;7404810;19;20302;-68
2023/01/14 06:46:13;;;;;;;;;;;16.40;68.70;;;;;;7407954;19;19944;-69
2023/01/14 06:48:44;;;;;;;3.05;0.68;;;16.40;68.70;;;;;;7405476;19;19910;-69
2023/01/14 06:51:14;;;;;;;2.80;0.20;;;16.40;68.60;;;;;;7405068;19;20344;-68
2023/01/14 06:53:44;;;;;;;1.98;0.20;;;16.50;68.60;;;;;;7404664;19;19931;-69
2023/01/14 06:56:17;;;;;;;2.45;0.28;;;16.50;68.50;;;;;;7404922;19;19925;-68
2023/01/14 06:58:50;;;;;;;3.17;0.70;;;16.60;68.40;;;;;;7405326;19;19923;-69
2023/01/14 07:01:19;;;;;;;2.22;0.70;;;16.70;68.40;;;;;;7405188;19;19928;-69
2023/01/14 07:03:49;;;;;;;3.03;0.32;;;16.70;68.20;;;;;;7404293;19;20307;-68
2023/01/14 07:06:18;;;;;;;3.47;1.02;;;16.80;68.10;;;;;;7405066;19;19914;-69
2023/01/14 07:08:47;;;;;;;2.05;0.30;;;16.80;68.00;;;;;;7405060;19;19931;-69
2023/01/14 07:11:19;;;;;;;2.55;0.32;;;16.90;67.80;;;;;;7405275;19;19929;-69
2023/01/14 07:13:48;;;;;;;3.58;0.65;;;17.00;67.70;;;;;;7404948;19;19911;-68
2023/01/14 07:16:17;;;;;;;1.30;0.55;;;17.10;67.60;;;;;;7404405;19;19919;-69
2023/01/14 07:18:46;;;;;;;2.78;1.02;;;17.10;67.40;;;;;;7408734;19;19918;-69
2023/01/14 07:21:15;;;;;;;3.33;0.57;;;17.20;67.40;;;;;;7404594;19;19921;-69
2023/01/14 07:23:44;;;;;;;4.22;1.35;;;17.20;67.30;;;;;;7404487;19;19919;-69
2023/01/14 07:26:13;;;;;;;3.00;0.88;;;17.30;67.30;;;;;;7404149;19;19915;-69
2023/01/14 07:28:45;;;;;;;3.38;1.35;;;17.20;67.20;;;;;;7404451;19;19917;-69
2023/01/14 07:31:14;;;;;;;2.42;0.30;;;17.30;67.30;;;;;;7403086;19;20309;-69
2023/01/14 07:33:43;;;;;;;3.35;0.80;;;17.30;67.30;;;;;;7404118;19;19925;-68
2023/01/14 07:36:12;;;;;;;3.15;0.30;;;17.20;67.20;;;;;;7404987;19;20364;-69
2023/01/14 07:38:41;;;;;;;2.58;0.32;;;17.20;67.30;;;;;;7403265;19;20355;-69
2023/01/14 07:41:11;;;;;;;2.83;1.38;;;17.20;67.30;;;;;;7404187;19;19966;-69
2023/01/14 07:43:43;;;;;;;1.88;0.30;;;17.20;67.30;;;;;;7403581;19;19939;-68
2023/01/14 07:46:12;;;;;;;2.53;0.40;;;17.20;67.30;;;;;;7403675;19;20386;-69
2023/01/14 07:48:44;;;;;;;2.72;0.40;;;17.20;67.30;;;;;;7403475;19;19914;-69
2023/01/14 07:51:16;;;;;;;2.88;0.82;;;17.20;67.40;;;;;;7403433;19;19918;-67
2023/01/14 07:53:45;;;;;;;2.78;0.35;;;17.20;67.40;;;;;;7403563;19;20403;-68
2023/01/14 07:56:13;;;;;;;2.00;0.22;;;17.10;67.40;;;;;;7403005;19;20337;-68
2023/01/14 07:58:45;;;;;;;4.20;0.52;;;17.10;67.40;;;;;;7403115;19;20043;-68
2023/01/14 08:01:15;;;;;;;2.85;0.50;;;17.10;67.50;;;;;;7403359;19;19919;-69
2023/01/14 08:03:45;;;;;;;2.70;0.82;;;17.00;67.50;;;;;;7402954;19;19918;-69
2023/01/14 08:06:14;;;;;;;2.97;1.02;;;17.00;67.50;;;;;;7401397;19;19915;-69
2023/01/14 08:08:43;;;;;;;2.38;0.95;;;17.00;67.60;;;;;;7403203;19;19907;-69
2023/01/14 08:11:12;;;;;;;3.78;0.52;;;17.00;67.60;;;;;;7403213;19;19915;-69
2023/01/14 08:13:41;;;;;;;2.45;0.40;;;17.00;67.60;;;;;;7403148;19;19956;-69
2023/01/14 08:16:13;;;;;;;2.00;0.28;;;17.00;67.70;;;;;;7403016;19;19970;-69
2023/01/14 08:18:42;;;;;;;2.97;1.48;;;16.90;67.70;;;;;;7402967;19;19952;-69
2023/01/14 08:21:13;;;;;;;2.38;0.38;;;16.90;67.70;;;;;;7402395;19;19918;-69
2023/01/14 08:23:42;;;;;;;3.13;0.60;;;16.90;67.70;;;;;;7402607;19;19933;-69
2023/01/14 08:26:13;;;;;;;3.85;0.40;;;16.90;67.80;;;;;;7400328;19;19953;-69
2023/01/14 08:28:43;;;;;;;2.30;0.28;;;16.90;67.80;;;;;;7402553;19;19990;-69
2023/01/14 08:31:16;;;;;;;4.32;1.05;;;16.80;67.80;;;;;;7402100;19;19923;-69
2023/01/14 08:33:47;;;;;;;3.05;0.93;;;16.80;67.80;;;;;;7401886;19;19915;-69
2023/01/14 08:36:18;;;;;;;3.25;0.52;;;16.80;67.90;;;;;;7403090;19;19915;-69
2023/01/14 08:38:48;;;;;;;3.83;1.02;;;16.80;67.90;;;;;;7401222;19;19943;-69
2023/01/14 08:41:19;;;;;;;3.00;1.23;;;16.80;68.00;;;;;;7402340;19;19939;-69
2023/01/14 08:43:51;;;;;;;2.75;0.90;;;16.70;67.90;;;;;;7401591;19;20337;-69
2023/01/14 08:46:23;;;;;;;4.35;1.42;;;16.70;67.90;;;;;;7401825;19;19915;-69
2023/01/14 08:48:52;;;;;;;2.88;0.40;;;16.70;67.90;;;;;;7401789;19;20446;-69
2023/01/14 08:51:26;;;;;;;2.90;0.40;;;16.70;68.00;;;;;;7402198;19;20360;-69
2023/01/14 08:54:00;;;;;;;3.95;0.30;;;16.70;68.00;;;;;;7401102;19;19923;-69
2023/01/14 08:56:30;;;;;;;3.55;0.50;;;16.70;68.10;;;;;;7401704;19;19987;-69
2023/01/14 08:58:59;;;;;;;2.28;0.43;;;16.60;68.00;;;;;;7401570;19;19936;-68
2023/01/14 09:01:32;;;;;;;3.20;0.90;;;16.70;68.10;;;;;;7401180;19;19920;-69
2023/01/14 09:04:01;;;;;;;5.10;0.95;;;16.60;68.10;;;;;;7401543;19;20354;-68
2023/01/14 09:06:30;;;;;;;5.57;0.52;;;16.60;68.10;;;;;;7401291;19;19919;-69
2023/01/14 09:17:12;;;;;;;4.45;0.75;;;16.50;68.20;;;;;;7404611;19;20378;-69
2023/01/14 09:19:44;;;;;;;3.10;0.95;;;16.50;68.20;;;;;;7407577;19;19918;-68
2023/01/14 09:22:17;;;;;;;3.30;1.08;;;16.50;68.20;;;;;;7408149;19;19918;-69
2023/01/14 09:24:50;;;;;;;4.45;0.40;;;16.60;68.30;;;;;;7406765;19;19990;-69
2023/01/14 09:27:19;;;;;;;2.53;0.47;;;16.50;68.30;;;;;;7408095;19;19914;-69
2023/01/14 09:29:51;;;;;;;1.30;0.30;;;16.50;68.40;;;;;;7407241;19;20647;-69
2023/01/14 09:32:23;;;;;;;4.32;0.57;;;16.50;68.30;;;;;;7405601;19;19914;-68
2023/01/14 09:34:52;;;;;;;4.32;0.88;;;16.50;68.40;;;;;;7407088;19;19915;-69
2023/01/14 09:37:24;;;;;;;4.75;0.95;;;16.50;68.40;;;;;;7407255;19;19919;-68
2023/01/14 09:39:53;;;;;;;2.95;0.85;;;16.50;68.40;;;;;;7407072;19;19915;-69
2023/01/14 09:42:29;;;;;;;4.15;1.08;;;16.50;68.40;;;;;;7407521;19;19922;-69
2023/01/14 09:45:08;;;;;;;3.70;0.90;;;16.50;68.40;;;;;;7406842;19;19922;-69
2023/01/14 09:47:40;;;;;;;3.08;0.70;;;16.40;68.50;;;;;;7407166;19;19929;-69
2023/01/14 09:50:16;;;;;;;3.30;0.38;;;16.40;68.50;;;;;;7406992;19;19970;-68
2023/01/14 09:53:07;;;;;;;2.88;0.52;;;16.40;68.50;;;;;;7406933;19;19919;-69
2023/01/14 09:55:42;;;;;;;2.30;0.30;;;16.40;68.50;;;;;;7406515;19;19922;-69
2023/01/14 09:58:18;;;;;;;2.55;0.30;;;16.40;68.50;;;;;;7406760;19;19915;-69
2023/01/14 10:00:57;;;;;;;2.88;0.93;;;16.40;68.50;;;;;;7406529;19;19927;-69
2023/01/14 10:03:34;;;;;;;4.10;0.43;;;16.40;68.50;;;;;;7406768;19;19919;-69
2023/01/14 10:06:07;;;;;;;3.58;0.38;;;16.40;68.50;;;;;;7405031;19;19918;-69
2023/01/14 10:08:40;;;;;;;3.25;0.65;;;16.40;68.50;;;;;;7406597;19;19922;-67
2023/01/14 10:11:11;;;;;;;2.03;0.60;;;16.40;68.50;;;;;;7406268;19;19936;-69
2023/01/14 10:13:44;;;;;;;2.88;0.30;;;16.40;68.60;;;;;;7406052;19;20402;-69
2023/01/14 10:16:18;;;;;;;1.85;0.28;;;16.40;68.60;;;;;;7408770;19;19918;-68
2023/01/14 10:18:55;;;;;;;2.88;1.00;;;16.30;68.50;;;;;;7406029;19;19915;-68
2023/01/14 10:21:32;;;;;;;3.53;0.70;;;16.30;68.50;;;;;;7406271;19;19948;-69
2023/01/14 10:24:01;;;;;;;2.92;0.40;;;16.40;68.60;;;;;;7406162;19;20340;-69
2023/01/14 10:26:33;;;;;;;3.22;1.38;;;16.40;68.60;;;;;;7403624;19;19921;-69
2023/01/14 10:29:05;;;;;;;3.90;0.88;;;16.40;69.10;;;;;;7404329;19;20402;-69
2023/01/14 10:31:57;;;;;;;1.95;0.30;;;16.50;68.50;;;;;;7402995;19;19941;-68
2023/01/14 10:34:34;;;;;;;2.70;0.40;;;16.50;68.50;;;;;;7405499;19;19948;-68
2023/01/14 10:37:03;;;;;;;2.75;0.43;;;16.60;68.40;;;;;;7405350;19;19918;-68
2023/01/14 10:39:32;;;;;;;2.20;0.20;;;16.60;68.30;;;;;;7403625;19;20263;-69
2023/01/14 10:42:03;;;;;;;2.55;0.30;;;16.70;68.10;;;;;;7405428;19;19910;-69
2023/01/14 10:44:34;;;;;;;2.75;0.35;;;16.80;68.10;;;;;;7405303;19;19929;-69
2023/01/14 10:47:09;;;;;;;3.63;1.02;;;16.80;68.00;;;;;;7401629;19;19911;-69
2023/01/14 10:49:44;;;;;;;2.03;0.30;;;16.90;67.80;;;;;;7405161;19;19954;-69
2023/01/14 10:52:27;;;;;;;2.22;0.60;;;17.00;67.70;;;;;;7405778;19;19914;-68
2023/01/14 10:55:00;;;;;;;3.30;0.80;;;17.10;67.60;;;;;;7404635;19;20341;-69
2023/01/14 10:57:31;;;;;;;3.67;0.43;;;17.10;67.40;;;;;;7405120;19;20260;-69
2023/01/14 11:00:01;;;;;;;2.22;0.88;;;17.20;67.40;;;;;;7405508;19;19919;-69
2023/01/14 11:02:36;;;;;;;3.00;0.90;;;17.20;67.40;;;;;;7405046;19;19940;-69
2023/01/14 11:05:25;;;;;;;2.67;1.13;;;17.20;67.40;;;;;;7404168;19;20333;-69
2023/01/14 11:07:55;;;;;;;2.20;1.30;;;17.20;67.40;;;;;;7404628;19;19930;-69
2023/01/14 11:10:27;;;;;;;2.33;0.35;;;17.20;67.40;;;;;;7404613;19;19914;-69
2023/01/14 11:12:56;;;;;;;2.97;0.70;;;17.20;67.40;;;;;;7404734;19;19918;-69
2023/01/14 11:15:37;;;;;;;3.05;1.00;;;17.10;67.40;;;;;;7406064;19;20345;-69
2023/01/14 11:18:29;;;;;;;2.55;0.88;;;17.20;67.40;;;;;;7404491;19;20366;-69
2023/01/14 11:21:10;;;;;;;2.30;1.17;;;17.20;67.50;;;;;;7404027;19;20342;-69
2023/01/14 11:23:42;;;;;;;4.05;0.55;;;17.10;67.50;;;;;;7404176;19;20337;-68
2023/01/14 11:26:13;;;;;;;2.55;0.68;;;17.10;67.60;;;;;;7402933;19;20333;-69
2023/01/14 11:28:47;;;;;;;2.97;0.32;;;17.10;67.60;;;;;;7403573;19;19924;-68
2023/01/14 11:31:17;;;;;;;2.58;0.82;;;17.10;67.60;;;;;;7403476;19;19927;-69
2023/01/14 11:33:52;;;;;;;2.67;0.90;;;17.00;67.60;;;;;;7404198;19;19915;-69
2023/01/14 11:36:31;;;;;;;2.33;0.30;;;17.00;67.60;;;;;;7404020;19;19932;-69
2023/01/14 11:39:02;;;;;;;3.33;1.00;;;17.00;67.70;;;;;;7402554;19;19919;-69
2023/01/14 11:41:42;;;;;;;2.38;0.20;;;17.00;67.70;;;;;;7400761;19;19922;-68
2023/01/14 11:44:29;;;;;;;1.42;0.20;;;17.00;67.80;;;;;;7404271;19;19919;-69
2023/01/14 11:47:14;;;;;;;2.00;0.80;;;16.90;67.70;;;;;;7402240;19;19978;-69
2023/01/14 11:49:43;;;;;;;3.15;0.28;;;16.90;67.80;;;;;;7403673;19;19974;-69
2023/01/14 11:52:23;;;;;;;3.95;1.13;;;16.90;67.80;;;;;;7408040;19;19929;-69
2023/01/14 11:54:53;;;;;;;2.25;0.20;;;16.90;67.90;;;;;;7403114;19;19978;-69
2023/01/14 11:57:22;;;;;;;3.03;0.88;;;16.90;67.90;;;;;;7403452;19;20388;-69
2023/01/14 11:59:53;;;;;;;3.40;0.80;;;16.80;67.90;;;;;;7403174;19;19938;-68
2023/01/14 12:02:26;;;;;;;1.90;0.20;;;16.80;68.00;;;;;;7403039;19;19922;-69
2023/01/14 12:05:02;;;;;;;2.22;0.70;;;16.80;68.00;;;;;;7402917;19;20337;-69
2023/01/14 12:07:38;;;;;;;1.83;0.20;;;16.80;68.10;;;;;;7403015;19;19921;-69
2023/01/14 12:10:16;;;;;;;3.03;0.28;;;16.80;68.00;;;;;;7402735;19;19925;-69
2023/01/14 12:18:27;;;;;;;2.38;0.32;;;16.70;68.10;;;;;;7402347;19;19915;-69
2023/01/14 12:20:56;;;;;;;2.78;1.27;;;16.70;68.10;;;;;;7402437;19;19924;-68
2023/01/14 12:23:31;;;;;;;2.33;0.30;;;16.70;68.20;;;;;;7402592;19;19926;-69
2023/01/14 12:26:04;;;;;;;1.98;0.50;;;16.70;68.20;;;;;;7401225;19;19982;-69
2023/01/14 12:28:38;;;;;;;3.40;0.30;;;16.70;68.20;;;;;;7402415;19;19931;-69
2023/01/14 12:31:11;;;;;;;2.47;0.70;;;16.60;68.20;;;;;;7401644;19;19915;-69
2023/01/14 12:33:45;;;;;;;1.73;0.20;;;16.60;68.30;;;;;;7402099;19;20280;-69
2023/01/14 12:36:20;;;;;;;3.75;0.30;;;16.70;68.90;;;;;;7402392;19;19940;-68
2023/01/14 12:47:13;;;;;;;2.45;1.30;;;16.60;68.50;;;;;;7400071;19;19914;-69
2023/01/14 12:49:44;;;;;;;2.67;0.82;;;16.50;68.40;;;;;;7401713;19;19918;-69
2023/01/14 12:52:15;;;;;;;2.45;0.57;;;16.50;68.50;;;;;;7402650;19;20324;-69
2023/01/14 12:54:46;;;;;;;1.95;0.57;;;16.60;68.50;;;;;;7408413;19;20351;-69
2023/01/14 12:57:21;;;;;;;2.08;0.40;;;16.60;68.60;;;;;;7408202;19;20271;-69
2023/01/14 12:59:57;;;;;;;1.35;0.22;;;16.50;68.50;;;;;;7408578;19;19918;-69
2023/01/14 13:02:36;;;;;;;1.80;0.80;;;16.50;68.60;;;;;;7408417;19;19919;-69
2023/01/14 13:05:08;;;;;;;2.35;0.55;;;16.50;68.70;;;;;;7408282;19;20549;-69
2023/01/14 13:07:40;;;;;;;1.95;0.13;;;16.50;68.60;;;;;;7405679;19;19911;-69
2023/01/14 13:10:13;;;;;;;2.50;0.93;;;16.50;68.70;;;;;;7407899;19;19917;-68
2023/01/14 13:12:49;;;;;;;2.65;0.20;;;16.50;68.70;;;;;;7407793;19;20368;-69
2023/01/14 13:15:27;;;;;;;2.00;0.10;;;16.50;68.70;;;;;;7411922;19;19925;-68
2023/01/14 13:17:58;;;;;;;1.80;0.28;;;16.50;68.80;;;;;;7407737;19;20066;-68
2023/01/14 13:20:49;;;;;;;1.75;0.35;;;16.50;68.80;;;;;;7407668;19;19925;-69
2023/01/14 13:23:48;;;;;;;2.50;1.13;;;16.40;68.80;;;;;;7407149;19;19915;-69
2023/01/14 13:26:44;;;;;;;2.42;1.17;;;16.40;68.80;;;;;;7405225;19;19918;-69
2023/01/14 13:29:24;;;;;;;1.45;0.55;;;16.40;68.80;;;;;;7407470;19;19990;-69
2023/01/14 13:31:55;;;;;;;1.30;0.20;;;16.40;68.80;;;;;;7405547;19;20283;-69
2023/01/14 13:35:04;;;;;;;2.40;0.80;;;16.40;68.80;;;;;;7407268;19;19939;-69
2023/01/14 13:37:51;;;;;;;1.90;0.30;;;16.40;68.80;;;;;;7407189;19;19914;-69
2023/01/14 13:40:23;;;;;;;1.52;0.20;;;16.40;68.90;;;;;;7407154;19;19918;-69
2023/01/14 13:43:04;;;;;;;1.65;0.30;;;16.40;68.90;;;;;;7407038;19;19990;-69
2023/01/14 13:45:41;;;;;;;2.50;0.95;;;16.40;68.90;;;;;;7406919;19;20520;-69
2023/01/14 13:48:19;;;;;;;1.83;0.93;;;16.40;69.40;;;;;;7406870;19;19932;-69
2023/01/14 13:50:49;;;;;;;1.63;0.70;;;16.50;68.80;;;;;;7406799;19;19929;-69
2023/01/14 13:53:30;;;;;;;1.95;0.43;;;16.50;68.70;;;;;;7406891;19;19914;-68
2023/01/14 13:56:02;;;;;;;2.10;0.17;;;16.50;68.60;;;;;;7406207;19;19911;-69
2023/01/14 13:58:36;;;;;;;1.45;0.10;;;16.60;68.60;;;;;;7406334;19;20272;-69
2023/01/14 14:01:28;;;;;;;1.98;0.73;;;16.70;68.50;;;;;;7406344;19;19914;-69
2023/01/14 14:03:57;;;;;;;1.17;0.13;;;16.70;68.40;;;;;;7403661;19;19932;-69
2023/01/14 14:06:48;;;;;;;1.40;0.20;;;16.80;68.30;;;;;;7405529;19;20261;-69